createdAt,value
2022-08-20T00:00:02.609Z,8.70
2022-08-20T00:01:02.657Z,8.60
2022-08-20T00:02:02.712Z,9.80
2022-08-20T00:03:02.610Z,9.80
2022-08-20T00:04:02.581Z,8.80
2022-08-20T00:05:02.625Z,9.30
2022-08-20T00:06:02.577Z,9.30
2022-08-20T00:07:02.554Z,10.10
2022-08-20T00:08:02.576Z,8.80
2022-08-20T00:09:02.546Z,9.90
2022-08-20T00:10:02.611Z,9.80
2022-08-20T00:11:02.603Z,11.30
2022-08-20T00:12:02.540Z,9.20
2022-08-20T00:13:02.548Z,13.00
2022-08-20T00:14:02.527Z,10.10
2022-08-20T00:15:02.533Z,12.80
2022-08-20T00:16:02.526Z,11.40
2022-08-20T00:17:02.501Z,11.40
2022-08-20T00:18:02.485Z,11.50
2022-08-20T00:19:02.523Z,10.10
2022-08-20T00:20:02.477Z,11.40
2022-08-20T00:21:03.155Z,10.60
2022-08-20T00:22:02.472Z,12.10
2022-08-20T00:23:03.724Z,11.20
2022-08-20T00:24:02.457Z,11.70
2022-08-20T00:25:02.427Z,15.80
2022-08-20T00:26:02.413Z,12.20
2022-08-20T00:27:02.415Z,11.20
2022-08-20T00:28:02.414Z,11.30
2022-08-20T00:29:02.443Z,11.00
2022-08-20T00:30:02.387Z,10.50
2022-08-20T00:31:02.396Z,10.90
2022-08-20T00:32:02.522Z,11.60
2022-08-20T00:33:02.405Z,12.00
2022-08-20T00:34:02.420Z,12.20
2022-08-20T00:35:02.427Z,12.00
2022-08-20T00:36:02.353Z,11.40
2022-08-20T00:37:02.343Z,11.70
2022-08-20T00:38:02.553Z,11.00
2022-08-20T00:39:02.346Z,11.30
2022-08-20T00:40:02.339Z,11.80
2022-08-20T00:41:03.034Z,10.90
2022-08-20T00:42:02.311Z,11.40
2022-08-20T00:43:03.308Z,14.10
2022-08-20T00:44:02.284Z,10.90
2022-08-20T00:45:02.283Z,11.70
2022-08-20T00:46:02.285Z,11.10
2022-08-20T00:47:02.255Z,12.00
2022-08-20T00:48:02.324Z,11.50
2022-08-20T00:49:03.163Z,12.40
2022-08-20T00:50:02.302Z,12.30
2022-08-20T00:51:03.032Z,10.70
2022-08-20T00:52:02.269Z,12.60
2022-08-20T00:53:03.044Z,11.00
2022-08-20T00:54:02.271Z,11.50
2022-08-20T00:55:02.211Z,10.80
2022-08-20T00:56:02.276Z,13.10
2022-08-20T00:57:02.267Z,12.60
2022-08-20T00:58:02.307Z,11.10
2022-08-20T00:59:02.160Z,12.00
2022-08-20T01:00:02.202Z,12.20
2022-08-20T01:01:02.171Z,11.50
2022-08-20T01:02:02.245Z,11.10
2022-08-20T01:03:02.148Z,11.00
2022-08-20T01:04:02.127Z,11.50
2022-08-20T01:05:02.162Z,12.80
2022-08-20T01:06:02.179Z,13.30
2022-08-20T01:07:02.124Z,11.60
2022-08-20T01:08:02.093Z,12.10
2022-08-20T01:09:02.096Z,11.70
2022-08-20T01:10:02.108Z,14.10
2022-08-20T01:11:02.089Z,13.00
2022-08-20T01:12:02.065Z,14.10
2022-08-20T01:13:02.106Z,12.80
2022-08-20T01:14:02.044Z,12.50
2022-08-20T01:15:02.290Z,14.60
2022-08-20T01:16:02.031Z,14.20
2022-08-20T01:17:02.031Z,12.50
2022-08-20T01:18:02.035Z,12.40
2022-08-20T01:19:02.023Z,12.60
2022-08-20T01:20:02.202Z,14.70
2022-08-20T01:21:02.005Z,12.70
2022-08-20T01:22:02.022Z,14.30
2022-08-20T01:23:02.013Z,13.80
2022-08-20T01:24:01.970Z,14.50
2022-08-20T01:25:01.976Z,12.20
2022-08-20T01:26:01.983Z,12.10
2022-08-20T01:27:01.943Z,12.80
2022-08-20T01:28:02.175Z,13.20
2022-08-20T01:29:02.018Z,13.30
2022-08-20T01:30:06.899Z,12.90
2022-08-20T01:31:02.925Z,14.40
2022-08-20T01:32:01.922Z,12.70
2022-08-20T01:33:01.920Z,13.10
2022-08-20T01:34:01.912Z,13.00
2022-08-20T01:35:01.882Z,12.70
2022-08-20T01:36:01.932Z,13.10
2022-08-20T01:37:01.882Z,15.50
2022-08-20T01:38:01.871Z,14.00
2022-08-20T01:39:01.857Z,13.20
2022-08-20T01:40:01.911Z,13.50
2022-08-20T01:41:01.866Z,14.60
2022-08-20T01:42:01.846Z,13.30
2022-08-20T01:43:01.829Z,13.20
2022-08-20T01:44:01.841Z,14.50
2022-08-20T01:45:01.934Z,12.90
2022-08-20T02:02:45.813Z,14.10
2022-08-20T02:03:45.796Z,15.00
2022-08-20T02:04:46.909Z,16.10
2022-08-20T02:05:46.941Z,17.70
2022-08-20T02:06:57.253Z,16.30
2022-08-20T02:07:48.019Z,16.00
2022-08-20T02:08:46.951Z,15.50
2022-08-20T02:09:46.865Z,16.20
2022-08-20T02:10:46.911Z,17.50
2022-08-20T02:11:46.934Z,16.50
2022-08-20T02:12:46.837Z,16.60
2022-08-20T02:13:46.907Z,15.40
2022-08-20T02:15:18.815Z,15.40
2022-08-20T02:15:47.841Z,17.70
2022-08-20T02:16:54.581Z,15.40
2022-08-20T02:17:48.842Z,15.40
2022-08-20T02:18:46.789Z,15.00
2022-08-20T02:19:46.797Z,15.40
2022-08-20T02:20:46.778Z,16.20
2022-08-20T02:21:47.531Z,15.80
2022-08-20T02:22:49.939Z,15.10
2022-08-20T02:23:46.774Z,17.90
2022-08-20T02:24:46.757Z,18.70
2022-08-20T02:25:46.735Z,15.70
2022-08-20T02:26:46.738Z,17.80
2022-08-20T02:27:46.718Z,17.30
2022-08-20T02:28:46.731Z,16.90
2022-08-20T02:29:46.702Z,16.20
2022-08-20T02:30:46.736Z,16.20
2022-08-20T02:32:32.351Z,15.50
2022-08-20T02:32:47.731Z,16.60
2022-08-20T02:34:21.762Z,16.80
2022-08-20T02:34:47.761Z,16.50
2022-08-20T02:35:46.662Z,16.00
2022-08-20T02:36:46.648Z,16.60
2022-08-20T02:37:46.686Z,15.40
2022-08-20T02:38:47.422Z,16.70
2022-08-20T02:39:46.730Z,15.40
2022-08-20T02:40:46.650Z,14.90
2022-08-20T02:41:46.613Z,15.70
2022-08-20T02:42:46.607Z,15.50
2022-08-20T02:43:46.653Z,15.60
2022-08-20T02:44:46.592Z,14.70
2022-08-20T02:45:46.594Z,14.90
2022-08-20T02:46:46.596Z,15.10
2022-08-20T02:47:46.561Z,15.20
2022-08-20T02:48:46.797Z,15.60
2022-08-20T02:49:46.538Z,15.60
2022-08-20T02:50:46.562Z,14.90
2022-08-20T02:51:46.541Z,17.40
2022-08-20T02:52:51.985Z,15.80
2022-08-20T02:53:47.585Z,15.70
2022-08-20T02:54:46.516Z,14.80
2022-08-20T02:55:46.528Z,14.70
2022-08-20T02:56:46.485Z,15.90
2022-08-20T02:57:46.502Z,15.20
2022-08-20T02:58:46.473Z,15.90
2022-08-20T02:59:46.478Z,15.20
2022-08-20T03:00:46.468Z,14.90
2022-08-20T03:01:46.492Z,15.00
2022-08-20T03:02:46.450Z,15.30
2022-08-20T03:03:46.450Z,15.20
2022-08-20T03:04:46.440Z,17.50
2022-08-20T03:05:46.439Z,15.80
2022-08-20T03:06:46.431Z,16.20
2022-08-20T03:07:46.434Z,16.10
2022-08-20T03:08:46.390Z,18.40
2022-08-20T03:09:46.391Z,16.10
2022-08-20T03:10:46.406Z,15.40
2022-08-20T03:11:46.385Z,15.50
2022-08-20T03:12:46.938Z,15.10
2022-08-20T03:13:46.412Z,20.60
2022-08-20T03:14:46.377Z,18.80
2022-08-20T03:15:46.385Z,15.50
2022-08-20T03:16:46.344Z,16.40
2022-08-20T03:17:46.343Z,16.10
2022-08-20T03:18:46.360Z,17.80
2022-08-20T03:19:46.313Z,17.90
2022-08-20T03:20:46.297Z,15.90
2022-08-20T03:21:48.572Z,17.00
2022-08-20T03:22:46.287Z,15.80
2022-08-20T03:23:46.273Z,16.20
2022-08-20T03:24:46.282Z,16.20
2022-08-20T03:25:46.278Z,18.90
2022-08-20T03:26:46.311Z,15.50
2022-08-20T03:27:46.259Z,15.80
2022-08-20T03:28:46.261Z,16.00
2022-08-20T03:29:46.273Z,16.10
2022-08-20T03:30:46.256Z,15.90
2022-08-20T03:31:46.311Z,15.90
2022-08-20T03:32:46.208Z,16.10
2022-08-20T03:33:48.953Z,15.30
2022-08-20T03:34:47.269Z,15.40
2022-08-20T03:35:46.193Z,15.60
2022-08-20T03:36:46.189Z,16.00
2022-08-20T03:37:48.448Z,15.60
2022-08-20T03:38:46.203Z,16.50
2022-08-20T03:39:46.745Z,16.20
2022-08-20T03:40:46.980Z,17.20
2022-08-20T03:41:46.134Z,18.80
2022-08-20T03:42:47.127Z,23.60
2022-08-20T03:43:46.124Z,16.30
2022-08-20T03:44:46.138Z,16.00
2022-08-20T03:45:46.181Z,17.80
2022-08-20T03:46:46.142Z,17.80
2022-08-20T04:02:15.956Z,20.80
2022-08-20T04:03:15.844Z,19.50
2022-08-20T04:04:16.997Z,21.60
2022-08-20T04:05:16.952Z,18.30
2022-08-20T04:06:17.900Z,18.10
2022-08-20T04:07:16.930Z,20.20
2022-08-20T04:08:16.928Z,20.00
2022-08-20T04:09:17.117Z,19.30
2022-08-20T04:10:16.913Z,19.60
2022-08-20T04:11:16.904Z,17.10
2022-08-20T04:12:16.891Z,16.90
2022-08-20T04:13:17.465Z,17.20
2022-08-20T04:14:19.449Z,17.10
2022-08-20T04:15:16.873Z,16.20
2022-08-20T04:16:16.859Z,17.20
2022-08-20T04:17:16.873Z,18.40
2022-08-20T04:18:16.844Z,19.80
2022-08-20T04:19:16.856Z,15.60
2022-08-20T04:20:16.905Z,15.90
2022-08-20T04:21:16.814Z,16.10
2022-08-20T04:22:16.832Z,16.30
2022-08-20T04:23:16.808Z,17.10
2022-08-20T04:24:22.174Z,17.80
2022-08-20T04:25:17.814Z,17.00
2022-08-20T04:26:17.782Z,17.00
2022-08-20T04:27:16.791Z,18.50
2022-08-20T04:28:16.782Z,17.80
2022-08-20T04:29:16.761Z,17.90
2022-08-20T04:30:16.782Z,16.70
2022-08-20T04:31:16.788Z,16.30
2022-08-20T04:32:17.863Z,16.90
2022-08-20T04:33:16.744Z,17.70
2022-08-20T04:34:17.751Z,16.40
2022-08-20T04:35:16.743Z,17.30
2022-08-20T04:36:16.761Z,18.00
2022-08-20T04:37:17.525Z,17.50
2022-08-20T04:38:16.707Z,17.40
2022-08-20T04:39:16.750Z,17.30
2022-08-20T04:40:16.744Z,16.70
2022-08-20T04:41:23.162Z,18.20
2022-08-20T04:42:17.677Z,16.30
2022-08-20T04:43:16.692Z,16.40
2022-08-20T04:44:16.670Z,18.90
2022-08-20T04:45:16.654Z,17.30
2022-08-20T04:46:16.629Z,17.80
2022-08-20T04:47:16.651Z,18.60
2022-08-20T04:48:18.469Z,16.40
2022-08-20T04:49:16.667Z,15.80
2022-08-20T04:50:16.607Z,16.90
2022-08-20T04:51:16.621Z,18.40
2022-08-20T04:52:16.611Z,16.70
2022-08-20T04:53:16.596Z,16.30
2022-08-20T04:54:16.590Z,18.20
2022-08-20T04:55:16.597Z,17.20
2022-08-20T04:56:16.559Z,17.50
2022-08-20T04:57:16.561Z,16.70
2022-08-20T04:58:16.549Z,18.90
2022-08-20T04:59:16.568Z,17.30
2022-08-20T05:00:16.542Z,18.10
2022-08-20T05:01:16.610Z,15.90
2022-08-20T05:02:16.550Z,16.50
2022-08-20T05:03:16.540Z,16.20
2022-08-20T05:04:17.490Z,18.10
2022-08-20T05:05:16.494Z,22.10
2022-08-20T05:06:16.499Z,16.00
2022-08-20T05:07:16.488Z,18.50
2022-08-20T05:08:19.857Z,16.10
2022-08-20T05:09:16.481Z,18.90
2022-08-20T05:10:16.520Z,18.20
2022-08-20T05:11:33.716Z,16.10
2022-08-20T05:12:17.441Z,19.10
2022-08-20T05:13:16.474Z,17.10
2022-08-20T05:14:16.439Z,16.30
2022-08-20T05:15:16.493Z,16.40
2022-08-20T05:16:16.434Z,16.90
2022-08-20T05:17:17.101Z,17.50
2022-08-20T05:18:16.425Z,17.90
2022-08-20T05:19:16.398Z,16.70
2022-08-20T05:20:16.404Z,15.90
2022-08-20T05:21:16.415Z,15.40
2022-08-20T05:22:16.451Z,15.10
2022-08-20T05:23:16.426Z,15.30
2022-08-20T05:24:16.404Z,16.60
2022-08-20T05:25:16.351Z,15.00
2022-08-20T05:26:16.342Z,14.90
2022-08-20T05:27:24.516Z,16.00
2022-08-20T05:28:17.355Z,14.50
2022-08-20T05:29:16.342Z,14.30
2022-08-20T05:30:16.307Z,15.20
2022-08-20T05:31:16.379Z,15.00
2022-08-20T05:32:16.314Z,16.40
2022-08-20T05:33:16.297Z,16.10
2022-08-20T05:34:16.287Z,16.80
2022-08-20T05:35:16.317Z,15.10
2022-08-20T05:36:16.281Z,14.50
2022-08-20T05:37:16.288Z,16.50
2022-08-20T05:38:17.711Z,17.10
2022-08-20T05:39:16.238Z,17.20
2022-08-20T05:40:16.317Z,16.80
2022-08-20T05:41:28.741Z,15.00
2022-08-20T05:42:17.251Z,14.40
2022-08-20T05:43:16.220Z,15.10
2022-08-20T05:44:16.231Z,14.80
2022-08-20T05:45:16.242Z,14.80
2022-08-20T05:46:16.220Z,14.90
2022-08-20T05:47:16.310Z,15.20
2022-08-20T05:48:16.196Z,17.90
2022-08-20T05:49:16.199Z,15.20
2022-08-20T05:50:19.900Z,16.90
2022-08-20T05:51:17.165Z,14.60
2022-08-20T05:52:16.164Z,14.50
2022-08-20T05:53:16.158Z,14.70
2022-08-20T05:54:16.138Z,16.20
2022-08-20T05:55:16.130Z,15.70
2022-08-20T05:56:16.137Z,16.40
2022-08-20T05:57:16.155Z,14.20
2022-08-20T05:58:16.127Z,14.00
2022-08-20T05:59:16.098Z,16.60
2022-08-20T06:00:16.103Z,13.80
2022-08-20T06:01:16.136Z,15.00
2022-08-20T06:02:16.110Z,14.10
2022-08-20T06:03:17.060Z,15.90
2022-08-20T06:04:16.048Z,19.00
2022-08-20T06:05:16.050Z,16.20
2022-08-20T06:06:38.799Z,15.40
2022-08-20T06:07:17.058Z,16.80
2022-08-20T06:08:16.040Z,15.80
2022-08-20T06:09:16.035Z,17.80
2022-08-20T06:10:16.025Z,14.90
2022-08-20T06:11:16.023Z,14.00
2022-08-20T06:12:16.071Z,15.00
2022-08-20T06:13:16.004Z,15.00
2022-08-20T06:14:16.119Z,16.90
2022-08-20T06:15:16.015Z,16.30
2022-08-20T06:16:15.957Z,16.60
2022-08-20T06:17:15.959Z,15.10
2022-08-20T06:18:27.635Z,16.70
2022-08-20T06:19:16.981Z,15.40
2022-08-20T06:20:16.958Z,14.30
2022-08-20T06:21:15.958Z,15.50
2022-08-20T06:22:18.059Z,14.60
2022-08-20T06:23:16.902Z,17.80
2022-08-20T06:24:15.906Z,15.80
2022-08-20T06:25:15.931Z,15.70
2022-08-20T06:26:15.913Z,17.10
2022-08-20T06:27:16.906Z,16.20
2022-08-20T06:28:15.872Z,14.70
2022-08-20T06:29:15.873Z,16.20
2022-08-20T06:30:15.936Z,16.00
2022-08-20T06:31:15.875Z,14.80
2022-08-20T06:32:15.870Z,17.30
2022-08-20T06:33:15.827Z,17.80
2022-08-20T06:34:15.825Z,15.90
2022-08-20T06:35:19.756Z,16.20
2022-08-20T06:36:18.680Z,15.70
2022-08-20T06:37:15.793Z,16.50
2022-08-20T06:38:15.836Z,14.40
2022-08-20T06:39:15.826Z,15.30
2022-08-20T06:40:15.835Z,15.70
2022-08-20T06:41:15.817Z,15.70
2022-08-20T06:42:20.784Z,15.70
2022-08-20T06:43:16.765Z,15.60
2022-08-20T06:44:15.756Z,14.50
2022-08-20T06:45:15.759Z,15.40
2022-08-20T06:46:15.775Z,14.20
2022-08-20T06:47:15.733Z,14.40
2022-08-20T06:48:15.717Z,19.50
2022-08-20T06:49:15.718Z,13.80
2022-08-20T06:50:15.706Z,14.00
2022-08-20T06:51:15.712Z,13.50
2022-08-20T06:52:15.801Z,17.90
2022-08-20T06:53:15.710Z,14.00
2022-08-20T06:54:16.518Z,13.90
2022-08-20T06:55:16.632Z,13.60
2022-08-20T06:56:15.671Z,12.90
2022-08-20T06:57:15.667Z,13.30
2022-08-20T06:58:36.589Z,13.40
2022-08-20T06:59:16.632Z,14.90
2022-08-20T07:00:15.646Z,13.90
2022-08-20T07:01:16.600Z,15.00
2022-08-20T07:02:15.643Z,14.60
2022-08-20T07:03:15.609Z,15.80
2022-08-20T07:04:15.638Z,14.30
2022-08-20T07:05:15.689Z,14.90
2022-08-20T07:06:15.591Z,18.10
2022-08-20T07:07:15.597Z,20.80
2022-08-20T07:08:47.587Z,20.70
2022-08-20T07:09:15.580Z,17.90
2022-08-20T07:10:16.145Z,18.30
2022-08-20T07:11:16.150Z,28.10
2022-08-20T07:12:15.539Z,21.40
2022-08-20T07:13:15.547Z,19.00
2022-08-20T07:14:15.549Z,19.40
2022-08-20T07:15:15.519Z,22.00
2022-08-20T07:16:16.532Z,21.20
2022-08-20T07:17:15.492Z,23.50
2022-08-20T07:18:15.503Z,23.10
2022-08-20T07:19:15.533Z,28.10
2022-08-20T07:20:15.499Z,25.40
2022-08-20T07:21:15.505Z,23.10
2022-08-20T07:22:15.515Z,21.30
2022-08-20T07:23:15.481Z,24.20
2022-08-20T07:24:15.483Z,23.10
2022-08-20T07:25:15.485Z,24.70
2022-08-20T07:26:15.456Z,25.30
2022-08-20T07:27:15.467Z,26.60
2022-08-20T07:28:15.453Z,35.00
2022-08-20T07:29:48.148Z,30.40
2022-08-20T07:30:15.416Z,42.00
2022-08-20T07:31:16.047Z,30.50
2022-08-20T07:32:47.575Z,35.80
2022-08-20T07:33:15.394Z,36.90
2022-08-20T07:34:15.377Z,38.70
2022-08-20T07:35:15.407Z,36.20
2022-08-20T07:36:15.391Z,41.40
2022-08-20T07:37:15.358Z,42.00
2022-08-20T07:38:15.397Z,46.50
2022-08-20T07:39:15.343Z,45.40
2022-08-20T07:40:15.386Z,43.80
2022-08-20T07:41:15.389Z,49.90
2022-08-20T07:42:15.320Z,51.90
2022-08-20T07:43:15.333Z,50.10
2022-08-20T07:44:15.365Z,52.60
2022-08-20T07:45:15.351Z,52.60
2022-08-20T07:46:15.361Z,54.20
2022-08-20T07:47:15.290Z,48.00
2022-08-20T07:48:31.221Z,47.30
2022-08-20T07:49:16.290Z,59.10
2022-08-20T07:50:15.309Z,56.70
2022-08-20T07:51:15.286Z,56.20
2022-08-20T07:52:15.272Z,59.20
2022-08-20T07:53:15.260Z,57.40
2022-08-20T07:54:15.229Z,58.60
2022-08-20T07:55:15.233Z,57.00
2022-08-20T07:56:15.258Z,61.90
2022-08-20T07:57:15.231Z,58.00
2022-08-20T07:58:15.236Z,59.10
2022-08-20T07:59:15.212Z,66.70
2022-08-20T08:00:16.204Z,69.10
2022-08-20T08:01:15.347Z,63.70
2022-08-20T08:02:15.211Z,70.40
2022-08-20T08:03:49.723Z,73.30
2022-08-20T08:04:15.235Z,66.10
2022-08-20T08:05:15.767Z,63.10
2022-08-20T08:06:15.163Z,73.00
2022-08-20T08:07:15.228Z,68.40
2022-08-20T08:08:15.165Z,64.20
2022-08-20T08:09:16.150Z,67.40
2022-08-20T08:10:15.124Z,68.20
2022-08-20T08:11:15.155Z,70.00
2022-08-20T08:12:15.105Z,66.80
2022-08-20T08:13:15.117Z,66.70
2022-08-20T08:14:15.107Z,64.20
2022-08-20T08:15:47.010Z,60.60
2022-08-20T08:16:15.060Z,57.60
2022-08-20T08:17:15.055Z,60.60
2022-08-20T08:18:15.053Z,58.50
2022-08-20T08:19:15.043Z,55.40
2022-08-20T08:20:15.031Z,52.90
2022-08-20T08:21:15.015Z,57.30
2022-08-20T08:22:15.034Z,51.90
2022-08-20T08:23:24.713Z,47.10
2022-08-20T08:24:20.893Z,49.70
2022-08-20T08:25:17.008Z,53.00
2022-08-20T08:26:16.300Z,45.90
2022-08-20T08:27:14.997Z,51.80
2022-08-20T08:28:14.986Z,50.70
2022-08-20T08:29:14.996Z,46.30
2022-08-20T08:30:14.983Z,40.60
2022-08-20T08:31:14.938Z,41.70
2022-08-20T08:32:14.976Z,45.00
2022-08-20T08:33:15.709Z,41.30
2022-08-20T08:34:14.936Z,38.80
2022-08-20T08:35:14.932Z,35.50
2022-08-20T08:36:14.898Z,37.10
2022-08-20T08:37:14.939Z,38.40
2022-08-20T08:38:14.897Z,34.80
2022-08-20T08:39:14.956Z,33.20
2022-08-20T08:40:15.020Z,30.60
2022-08-20T08:41:14.991Z,32.40
2022-08-20T08:42:14.865Z,28.90
2022-08-20T08:43:14.875Z,26.60
2022-08-20T08:44:16.695Z,26.30
2022-08-20T08:45:14.834Z,26.00
2022-08-20T08:46:14.819Z,28.10
2022-08-20T08:47:14.884Z,27.40
2022-08-20T08:48:18.399Z,23.50
2022-08-20T08:49:15.805Z,23.00
2022-08-20T08:50:14.816Z,25.40
2022-08-20T08:51:14.825Z,23.90
2022-08-20T08:52:14.848Z,22.80
2022-08-20T08:53:14.856Z,18.80
2022-08-20T08:54:14.776Z,21.20
2022-08-20T08:55:15.759Z,33.50
2022-08-20T08:56:14.758Z,32.30
2022-08-20T08:57:14.782Z,22.60
2022-08-20T08:58:16.597Z,22.50
2022-08-20T08:59:14.818Z,18.40
2022-08-20T09:00:14.709Z,18.50
2022-08-20T09:01:55.824Z,19.90
2022-08-20T09:02:15.723Z,16.40
2022-08-20T09:03:14.712Z,17.30
2022-08-20T09:04:14.709Z,19.60
2022-08-20T09:05:14.710Z,19.70
2022-08-20T09:06:15.558Z,21.40
2022-08-20T09:07:14.689Z,18.40
2022-08-20T09:08:17.195Z,15.50
2022-08-20T09:09:15.639Z,15.90
2022-08-20T09:10:14.663Z,16.20
2022-08-20T09:11:14.636Z,16.00
2022-08-20T09:12:14.634Z,14.60
2022-08-20T09:13:14.612Z,14.70
2022-08-20T09:14:14.625Z,16.80
2022-08-20T09:15:14.619Z,15.10
2022-08-20T09:16:14.587Z,13.90
2022-08-20T09:17:14.593Z,13.60
2022-08-20T09:18:14.609Z,15.80
2022-08-20T09:19:14.579Z,16.90
2022-08-20T09:20:14.588Z,13.00
2022-08-20T09:21:14.599Z,15.00
2022-08-20T09:22:14.571Z,17.90
2022-08-20T09:23:14.551Z,20.40
2022-08-20T09:24:14.536Z,15.80
2022-08-20T09:25:14.644Z,17.90
2022-08-20T09:26:14.553Z,13.70
2022-08-20T09:27:14.520Z,13.00
2022-08-20T09:28:14.518Z,14.90
2022-08-20T09:29:14.541Z,13.20
2022-08-20T09:30:15.067Z,14.50
2022-08-20T09:31:14.532Z,12.20
2022-08-20T09:32:14.494Z,13.50
2022-08-20T09:33:15.257Z,13.70
2022-08-20T09:34:14.493Z,13.60
2022-08-20T09:35:14.497Z,12.80
2022-08-20T09:36:31.481Z,16.60
2022-08-20T09:37:15.469Z,14.00
2022-08-20T09:38:14.475Z,15.10
2022-08-20T09:39:14.465Z,14.90
2022-08-20T09:40:14.517Z,15.60
2022-08-20T09:41:15.438Z,14.70
2022-08-20T09:42:15.220Z,13.90
2022-08-20T09:43:14.434Z,13.10
2022-08-20T09:44:14.406Z,17.40
2022-08-20T09:45:14.415Z,13.80
2022-08-20T09:46:14.407Z,14.20
2022-08-20T09:47:14.393Z,13.30
2022-08-20T09:48:14.395Z,13.00
2022-08-20T09:49:14.373Z,16.20
2022-08-20T09:50:14.454Z,17.50
2022-08-20T09:51:14.388Z,12.90
2022-08-20T09:52:15.315Z,14.10
2022-08-20T09:53:14.444Z,14.40
2022-08-20T09:54:14.371Z,13.70
2022-08-20T09:55:15.343Z,14.10
2022-08-20T09:56:14.314Z,12.40
2022-08-20T09:57:14.349Z,12.20
2022-08-20T09:58:14.524Z,13.40
2022-08-20T09:59:14.361Z,12.90
2022-08-20T10:00:14.352Z,14.20
2022-08-20T10:01:14.515Z,13.50
2022-08-20T10:02:14.297Z,16.40
2022-08-20T10:03:14.280Z,16.90
2022-08-20T10:04:14.299Z,14.60
2022-08-20T10:05:14.267Z,15.70
2022-08-20T10:06:14.279Z,12.30
2022-08-20T10:07:15.931Z,15.80
2022-08-20T10:08:14.266Z,12.30
2022-08-20T10:09:14.271Z,13.40
2022-08-20T10:10:14.290Z,13.20
2022-08-20T10:11:14.258Z,11.60
2022-08-20T10:12:14.273Z,11.80
2022-08-20T10:13:15.546Z,13.60
2022-08-20T10:14:14.248Z,13.60
2022-08-20T10:15:14.210Z,14.40
2022-08-20T10:16:14.219Z,12.90
2022-08-20T10:17:14.220Z,14.50
2022-08-20T10:18:14.183Z,12.40
2022-08-20T10:19:14.219Z,10.60
2022-08-20T10:20:14.226Z,10.80
2022-08-20T10:21:14.169Z,10.30
2022-08-20T10:22:14.177Z,10.80
2022-08-20T10:23:14.139Z,10.20
2022-08-20T10:24:14.151Z,10.70
2022-08-20T10:25:14.138Z,9.80
2022-08-20T10:26:14.275Z,11.10
2022-08-20T10:27:14.166Z,9.30
2022-08-20T10:28:14.141Z,9.20
2022-08-20T10:29:14.170Z,10.30
2022-08-20T10:30:14.146Z,9.70
2022-08-20T10:31:14.107Z,8.40
2022-08-20T10:32:14.108Z,7.70
2022-08-20T10:33:14.143Z,8.60
2022-08-20T10:34:14.088Z,7.50
2022-08-20T10:35:14.133Z,8.60
2022-08-20T10:36:14.054Z,7.70
2022-08-20T10:37:14.076Z,12.20
2022-08-20T10:38:14.113Z,9.00
2022-08-20T10:39:14.041Z,8.30
2022-08-20T10:40:14.234Z,11.50
2022-08-20T10:41:14.084Z,8.00
2022-08-20T10:42:14.039Z,9.90
2022-08-20T10:43:14.086Z,8.10
2022-08-20T10:44:14.729Z,8.80
2022-08-20T10:45:14.033Z,9.20
2022-08-20T10:46:14.019Z,7.50
2022-08-20T10:47:13.985Z,6.70
2022-08-20T10:48:18.221Z,7.50
2022-08-20T10:49:15.003Z,8.10
2022-08-20T10:50:14.037Z,8.90
2022-08-20T10:51:13.987Z,7.60
2022-08-20T10:52:13.986Z,8.80
2022-08-20T10:53:13.941Z,7.40
2022-08-20T10:54:13.941Z,8.30
2022-08-20T10:55:13.968Z,8.30
2022-08-20T10:56:15.745Z,8.70
2022-08-20T10:57:15.667Z,6.40
2022-08-20T10:58:13.932Z,6.40
2022-08-20T10:59:13.895Z,7.30
2022-08-20T11:00:14.038Z,8.60
2022-08-20T11:01:13.932Z,7.40
2022-08-20T11:02:14.925Z,9.00
2022-08-20T11:03:13.922Z,10.30
2022-08-20T11:04:13.865Z,11.00
2022-08-20T11:05:13.854Z,11.10
2022-08-20T11:06:13.875Z,12.30
2022-08-20T11:07:13.878Z,9.60
2022-08-20T11:08:13.830Z,9.30
2022-08-20T11:09:13.851Z,8.90
2022-08-20T11:10:14.165Z,7.80
2022-08-20T11:11:14.868Z,8.30
2022-08-20T11:12:13.839Z,9.40
2022-08-20T11:13:13.879Z,9.60
2022-08-20T11:14:13.801Z,7.50
2022-08-20T11:15:13.792Z,7.40
2022-08-20T11:16:13.796Z,7.40
2022-08-20T11:17:13.813Z,7.30
2022-08-20T11:18:13.776Z,9.30
2022-08-20T11:19:13.773Z,9.40
2022-08-20T11:20:13.791Z,11.70
2022-08-20T11:21:14.754Z,9.20
2022-08-20T11:22:13.815Z,8.70
2022-08-20T11:23:13.744Z,8.00
2022-08-20T11:24:13.749Z,8.30
2022-08-20T11:25:13.723Z,9.10
2022-08-20T11:26:13.724Z,7.20
2022-08-20T11:27:13.719Z,8.20
2022-08-20T11:28:14.724Z,9.80
2022-08-20T11:29:13.702Z,7.60
2022-08-20T11:30:13.693Z,8.00
2022-08-20T11:31:13.734Z,6.10
2022-08-20T11:32:13.771Z,5.70
2022-08-20T11:33:13.672Z,6.60
2022-08-20T11:34:13.729Z,6.70
2022-08-20T11:35:41.135Z,6.20
2022-08-20T11:36:15.655Z,6.20
2022-08-20T11:37:13.672Z,6.20
2022-08-20T11:38:13.632Z,5.10
2022-08-20T11:39:13.646Z,5.00
2022-08-20T11:40:13.656Z,4.70
2022-08-20T11:41:13.627Z,4.60
2022-08-20T11:42:13.616Z,7.10
2022-08-20T11:43:16.219Z,5.30
2022-08-20T11:44:21.723Z,6.40
2022-08-20T11:45:15.647Z,7.90
2022-08-20T11:46:13.617Z,5.90
2022-08-20T11:47:13.573Z,3.90
2022-08-20T11:48:13.566Z,3.60
2022-08-20T11:49:13.659Z,3.70
2022-08-20T11:50:13.583Z,3.90
2022-08-20T11:51:13.572Z,3.30
2022-08-20T11:52:13.532Z,3.50
2022-08-20T11:53:13.575Z,3.50
2022-08-20T11:54:13.576Z,4.60
2022-08-20T11:55:13.561Z,7.50
2022-08-20T11:56:13.498Z,7.20
2022-08-20T11:57:13.506Z,4.80
2022-08-20T11:58:13.522Z,5.10
2022-08-20T11:59:13.472Z,4.20
2022-08-20T12:00:13.573Z,5.80
2022-08-20T12:01:13.488Z,6.30
2022-08-20T12:02:13.529Z,4.40
2022-08-20T12:03:13.553Z,4.80
2022-08-20T12:04:13.442Z,5.30
2022-08-20T12:05:13.445Z,3.90
2022-08-20T12:06:13.437Z,5.70
2022-08-20T12:07:13.460Z,4.90
2022-08-20T12:08:27.021Z,5.00
2022-08-20T12:09:14.512Z,5.10
2022-08-20T12:10:13.387Z,5.40
2022-08-20T12:11:13.408Z,4.50
2022-08-20T12:12:13.959Z,5.10
2022-08-20T12:13:13.390Z,4.00
2022-08-20T12:14:13.386Z,5.10
2022-08-20T12:15:13.367Z,4.20
2022-08-20T12:16:13.462Z,3.40
2022-08-20T12:17:13.372Z,6.30
2022-08-20T12:18:13.408Z,5.10
2022-08-20T12:19:13.341Z,4.20
2022-08-20T12:20:13.323Z,4.40
2022-08-20T12:21:13.359Z,4.90
2022-08-20T12:22:21.313Z,4.00
2022-08-20T12:23:14.366Z,3.30
2022-08-20T12:24:13.330Z,2.60
2022-08-20T12:25:13.345Z,5.80
2022-08-20T12:26:13.371Z,6.50
2022-08-20T12:27:13.329Z,10.40
2022-08-20T12:28:13.283Z,5.40
2022-08-20T12:29:13.273Z,6.50
2022-08-20T12:30:13.252Z,4.00
2022-08-20T12:31:13.255Z,3.40
2022-08-20T12:32:13.251Z,4.70
2022-08-20T12:33:13.275Z,5.00
2022-08-20T12:34:13.253Z,4.70
2022-08-20T12:35:13.228Z,6.60
2022-08-20T12:36:13.253Z,4.90
2022-08-20T12:37:15.968Z,4.30
2022-08-20T12:38:14.214Z,4.50
2022-08-20T12:39:13.196Z,7.20
2022-08-20T12:40:13.391Z,8.50
2022-08-20T12:41:13.207Z,4.90
2022-08-20T12:42:13.178Z,5.70
2022-08-20T12:43:13.189Z,6.90
2022-08-20T12:44:13.712Z,7.60
2022-08-20T12:45:13.152Z,7.00
2022-08-20T12:46:13.243Z,7.70
2022-08-20T12:47:13.190Z,6.90
2022-08-20T12:48:13.127Z,6.70
2022-08-20T12:49:13.114Z,7.10
2022-08-20T12:50:13.115Z,8.60
2022-08-20T12:51:13.143Z,7.60
2022-08-20T12:52:13.092Z,8.50
2022-08-20T12:53:13.099Z,5.80
2022-08-20T12:54:13.064Z,7.10
2022-08-20T12:55:13.092Z,6.70
2022-08-20T12:56:13.078Z,7.40
2022-08-20T12:57:13.085Z,6.90
2022-08-20T12:58:13.071Z,7.50
2022-08-20T12:59:13.099Z,7.80
2022-08-20T13:00:13.047Z,8.40
2022-08-20T13:01:13.060Z,7.40
2022-08-20T13:02:14.430Z,10.70
2022-08-20T13:03:14.009Z,6.90
2022-08-20T13:04:13.383Z,8.90
2022-08-20T13:05:12.997Z,7.10
2022-08-20T13:06:13.012Z,8.20
2022-08-20T13:07:12.994Z,7.40
2022-08-20T13:08:12.990Z,5.60
2022-08-20T13:09:12.967Z,7.70
2022-08-20T13:10:12.968Z,6.90
2022-08-20T13:11:12.988Z,6.00
2022-08-20T13:12:12.969Z,7.90
2022-08-20T13:13:12.939Z,6.80
2022-08-20T13:14:12.934Z,7.20
2022-08-20T13:15:13.005Z,7.10
2022-08-20T13:16:12.968Z,7.80
2022-08-20T13:17:12.913Z,5.10
2022-08-20T13:18:12.911Z,4.10
2022-08-20T13:19:12.885Z,4.00
2022-08-20T13:20:12.953Z,4.00
2022-08-20T13:21:12.872Z,4.30
2022-08-20T13:22:12.878Z,4.40
2022-08-20T13:23:12.887Z,4.50
2022-08-20T13:24:12.867Z,6.50
2022-08-20T13:25:12.897Z,4.70
2022-08-20T13:26:12.915Z,3.30
2022-08-20T13:27:12.840Z,3.50
2022-08-20T13:28:13.722Z,4.40
2022-08-20T13:29:12.807Z,6.10